createdAt,value
2018-04-06T00:02:25.754Z,1.63
2018-04-06T00:07:28.649Z,1.63
2018-04-06T00:12:31.190Z,2.43
2018-04-06T00:17:34.501Z,1.70
2018-04-06T00:22:37.777Z,1.60
2018-04-06T00:27:40.269Z,1.50
2018-04-06T00:32:42.774Z,1.80
2018-04-06T00:37:45.283Z,2.00
2018-04-06T00:42:47.823Z,1.33
2018-04-06T00:47:50.575Z,1.70
2018-04-06T00:52:53.134Z,1.77
2018-04-06T00:57:55.679Z,1.67
2018-04-06T01:02:58.530Z,1.67
2018-04-06T01:08:01.065Z,1.87
2018-04-06T01:13:04.459Z,1.60
2018-04-06T01:18:06.988Z,1.37
2018-04-06T01:23:10.560Z,1.50
2018-04-06T01:28:14.113Z,1.60
2018-04-06T01:33:16.695Z,1.70
2018-04-06T01:38:19.202Z,1.40
2018-04-06T01:43:22.492Z,1.67
2018-04-06T01:48:25.362Z,1.60
2018-04-06T01:53:27.919Z,1.70
2018-04-06T01:58:30.804Z,1.80
2018-04-06T02:03:33.358Z,1.50
2018-04-06T02:08:36.412Z,1.80
2018-04-06T02:13:39.854Z,1.60
2018-04-06T02:18:42.437Z,1.60
2018-04-06T02:23:44.954Z,1.70
2018-04-06T02:28:47.451Z,1.73
2018-04-06T02:33:49.957Z,1.50
2018-04-06T02:38:52.459Z,1.80
2018-04-06T02:43:54.995Z,1.73
2018-04-06T02:48:58.308Z,1.40
2018-04-06T02:54:00.982Z,1.60
2018-04-06T02:59:03.684Z,1.77
2018-04-06T03:04:06.446Z,1.83
2018-04-06T03:09:08.981Z,1.37
2018-04-06T03:14:11.681Z,2.00
2018-04-06T03:19:15.305Z,1.60
2018-04-06T03:24:17.961Z,1.60
2018-04-06T03:29:20.917Z,1.30
2018-04-06T03:34:23.537Z,1.50
2018-04-06T03:39:26.201Z,1.50
2018-04-06T03:44:28.734Z,1.40
2018-04-06T03:49:31.668Z,1.60
2018-04-06T03:54:34.410Z,1.50
2018-04-06T03:59:37.596Z,1.70
2018-04-06T04:04:40.158Z,1.50
2018-04-06T04:09:42.792Z,1.50
2018-04-06T04:14:45.396Z,1.57
2018-04-06T04:19:48.700Z,1.30
2018-04-06T04:24:52.116Z,1.60
2018-04-06T04:29:55.414Z,1.90
2018-04-06T04:34:57.944Z,1.50
2018-04-06T04:40:00.518Z,1.67
2018-04-06T04:45:03.064Z,1.23
2018-04-06T04:50:05.804Z,1.37
2018-04-06T04:55:08.357Z,1.27
2018-04-06T05:00:10.880Z,1.20
2018-04-06T05:05:13.430Z,1.13
2018-04-06T05:10:16.934Z,1.80
2018-04-06T05:15:19.552Z,1.23
2018-04-06T05:20:22.108Z,1.57
2018-04-06T05:25:25.618Z,1.30
2018-04-06T05:30:28.146Z,1.40
2018-04-06T05:35:30.813Z,1.53
2018-04-06T05:40:34.145Z,1.20
2018-04-06T05:45:36.686Z,1.40
2018-04-06T05:50:39.427Z,1.20
2018-04-06T05:55:42.273Z,1.57
2018-04-06T06:00:45.271Z,1.13
2018-04-06T06:05:47.994Z,1.20
2018-04-06T06:10:50.914Z,1.63
2018-04-06T06:15:54.431Z,1.13
2018-04-06T06:20:57.000Z,1.20
2018-04-06T06:25:59.753Z,1.00
2018-04-06T06:31:03.150Z,1.00
2018-04-06T06:36:05.747Z,1.10
2018-04-06T06:41:09.169Z,1.27
2018-04-06T06:46:11.765Z,1.50
2018-04-06T06:51:14.345Z,1.57
2018-04-06T06:56:17.757Z,1.60
2018-04-06T07:01:21.307Z,1.80
2018-04-06T07:06:23.836Z,1.67
2018-04-06T07:11:26.389Z,1.60
2018-04-06T07:16:28.934Z,3.27
2018-04-06T07:21:31.613Z,2.90
2018-04-06T07:26:34.521Z,3.23
2018-04-06T07:31:37.033Z,3.60
2018-04-06T07:36:39.690Z,2.80
2018-04-06T07:41:42.195Z,3.63
2018-04-06T07:46:44.711Z,3.13
2018-04-06T07:51:47.380Z,2.93
2018-04-06T07:56:50.143Z,3.30
2018-04-06T08:01:53.854Z,1.93
2018-04-06T08:06:56.564Z,2.70
2018-04-06T08:11:59.216Z,2.43
2018-04-06T08:17:01.967Z,2.07
2018-04-06T08:22:04.559Z,1.77
2018-04-06T08:27:07.085Z,2.17
2018-04-06T08:32:09.699Z,1.60
2018-04-06T08:37:12.918Z,2.20
2018-04-06T08:42:15.695Z,2.60
2018-04-06T08:47:18.568Z,1.70
2018-04-06T08:52:21.084Z,2.20
2018-04-06T08:57:23.732Z,1.70
2018-04-06T09:02:26.377Z,1.53
2018-04-06T09:07:29.759Z,1.90
2018-04-06T09:12:33.014Z,2.23
2018-04-06T09:17:35.711Z,2.80
2018-04-06T09:22:38.419Z,2.70
2018-04-06T09:27:41.123Z,2.33
2018-04-06T09:32:43.696Z,2.50
2018-04-06T09:37:47.105Z,2.77
2018-04-06T09:42:49.733Z,2.10
2018-04-06T09:47:52.794Z,1.80
2018-04-06T09:52:55.402Z,2.07
2018-04-06T09:57:57.968Z,2.03
2018-04-06T10:03:03.475Z,2.40
2018-04-06T10:08:06.051Z,1.70
2018-04-06T10:13:09.023Z,2.03
2018-04-06T10:18:13.201Z,1.40
2018-04-06T10:23:16.015Z,2.00
2018-04-06T10:28:18.660Z,1.50
2018-04-06T10:33:21.337Z,1.87
2018-04-06T10:38:24.430Z,1.37
2018-04-06T10:43:27.218Z,1.33
2018-04-06T10:48:29.769Z,1.30
2018-04-06T10:53:32.740Z,1.93
2018-04-06T10:58:35.456Z,1.70
2018-04-06T11:03:38.219Z,1.37
2018-04-06T11:08:41.058Z,1.33
2018-04-06T11:13:47.125Z,2.20
2018-04-06T11:18:49.876Z,1.53
2018-04-06T11:23:52.411Z,1.60
2018-04-06T11:28:54.940Z,1.90
2018-04-06T11:33:57.991Z,1.57
2018-04-06T11:39:00.529Z,1.67
2018-04-06T11:44:03.218Z,1.23
2018-04-06T11:49:05.807Z,1.57
2018-04-06T11:54:09.793Z,1.27
2018-04-06T11:59:12.704Z,1.50
2018-04-06T12:04:15.534Z,1.40
2018-04-06T12:09:18.132Z,1.50
2018-04-06T12:14:20.678Z,1.73
2018-04-06T12:19:23.204Z,1.40
2018-04-06T12:24:25.731Z,1.77
2018-04-06T12:29:28.470Z,1.20
2018-04-06T12:34:31.302Z,1.80
2018-04-06T12:39:33.877Z,1.43
2018-04-06T12:44:36.934Z,1.40
2018-04-06T12:49:39.474Z,1.40
2018-04-06T12:54:42.093Z,1.20
2018-04-06T12:59:44.634Z,1.40
2018-04-06T13:04:47.193Z,1.37
2018-04-06T13:09:49.816Z,1.20
2018-04-06T13:14:52.376Z,1.30
2018-04-06T13:19:55.723Z,1.67
2018-04-06T13:24:58.385Z,1.80
2018-04-06T13:30:01.922Z,1.20
2018-04-06T13:35:05.996Z,2.50
2018-04-06T13:40:08.571Z,1.47
2018-04-06T13:45:11.122Z,1.77
2018-04-06T13:50:14.680Z,1.43
2018-04-06T13:55:17.265Z,1.37
2018-04-06T14:00:19.846Z,1.47
2018-04-06T14:05:22.446Z,1.50
2018-04-06T14:10:25.013Z,1.63
2018-04-06T14:15:27.942Z,1.30
2018-04-06T14:20:31.331Z,1.50
2018-04-06T14:25:33.872Z,1.30
2018-04-06T14:30:36.436Z,1.60
2018-04-06T14:35:39.632Z,1.90
2018-04-06T14:40:42.950Z,2.40
2018-04-06T14:45:46.319Z,2.20
2018-04-06T14:50:49.002Z,2.03
2018-04-06T14:55:51.532Z,1.93
2018-04-06T15:00:54.372Z,1.70
2018-04-06T15:05:57.019Z,2.00
2018-04-06T15:10:59.604Z,1.67
2018-04-06T15:16:02.156Z,1.63
2018-04-06T15:21:04.991Z,2.10
2018-04-06T15:26:08.291Z,1.83
2018-04-06T15:31:10.857Z,2.33
2018-04-06T15:36:13.386Z,1.40
2018-04-06T15:41:16.261Z,2.47
2018-04-06T15:46:20.401Z,1.93
2018-04-06T15:51:23.093Z,1.80
2018-04-06T15:56:25.718Z,1.80
2018-04-06T16:01:28.278Z,2.03
2018-04-06T16:06:30.935Z,1.90
2018-04-06T16:11:33.522Z,2.00
2018-04-06T16:16:36.244Z,2.57
2018-04-06T16:21:39.647Z,1.90
2018-04-06T16:26:42.362Z,1.70
2018-04-06T16:31:45.810Z,1.50
2018-04-06T16:36:48.410Z,1.77
2018-04-06T16:41:50.952Z,1.80
2018-04-06T16:46:53.640Z,1.70
2018-04-06T16:51:57.095Z,1.30
2018-04-06T16:56:59.752Z,1.60
2018-04-06T17:02:02.618Z,1.50
2018-04-06T17:07:05.591Z,1.57
2018-04-06T17:12:08.129Z,1.53
2018-04-06T17:17:11.654Z,1.73
2018-04-06T17:22:14.253Z,1.87
2018-04-06T17:27:16.806Z,1.60
2018-04-06T17:32:19.344Z,1.40
2018-04-06T17:37:21.893Z,1.40
2018-04-06T17:42:24.477Z,1.37
2018-04-06T17:47:26.991Z,2.20
2018-04-06T17:52:29.566Z,1.67
2018-04-06T17:57:32.127Z,2.00
2018-04-06T18:02:34.732Z,1.80
2018-04-06T18:07:37.228Z,1.67
2018-04-06T18:12:39.732Z,1.60
2018-04-06T18:17:44.381Z,1.80
2018-04-06T18:22:47.493Z,1.50
2018-04-06T18:27:50.064Z,2.10
2018-04-06T18:32:53.346Z,2.40
2018-04-06T18:37:55.976Z,2.00
2018-04-06T18:42:58.539Z,2.27
2018-04-06T18:48:01.271Z,2.00
2018-04-06T18:53:04.629Z,2.40
2018-04-06T18:58:08.033Z,2.17
2018-04-06T19:03:10.718Z,2.30
2018-04-06T19:08:13.305Z,2.20
2018-04-06T19:13:16.015Z,2.10
2018-04-06T19:18:18.874Z,2.20
2018-04-06T19:23:22.301Z,2.80
2018-04-06T19:28:25.730Z,2.40
2018-04-06T19:33:28.312Z,2.30
2018-04-06T19:38:31.763Z,2.70
2018-04-06T19:43:34.377Z,2.57
2018-04-06T19:48:36.999Z,2.80
2018-04-06T19:53:39.629Z,3.33
2018-04-06T19:58:42.388Z,3.27
2018-04-06T20:03:45.047Z,2.57
2018-04-06T20:08:47.585Z,2.60
2018-04-06T20:13:51.528Z,2.90
2018-04-06T20:18:54.870Z,2.67
2018-04-06T20:23:57.770Z,3.00
2018-04-06T20:29:00.692Z,3.40
2018-04-06T20:34:03.307Z,2.90
2018-04-06T20:39:06.151Z,3.20
2018-04-06T20:44:08.724Z,3.20
2018-04-06T20:49:11.291Z,3.00
2018-04-06T20:54:14.251Z,3.40
2018-04-06T20:59:16.792Z,2.30
2018-04-06T21:04:19.345Z,5.30
2018-04-06T21:09:22.048Z,3.40
2018-04-06T21:14:24.599Z,2.77
2018-04-06T21:19:27.900Z,2.90
2018-04-06T21:24:30.433Z,3.00
2018-04-06T21:29:34.168Z,2.53
2018-04-06T21:34:37.062Z,3.00
2018-04-06T21:39:39.706Z,2.80
2018-04-06T21:44:42.328Z,2.77
2018-04-06T21:49:45.499Z,2.90
2018-04-06T21:54:48.445Z,2.97
2018-04-06T21:59:50.983Z,2.70
2018-04-06T22:04:53.882Z,2.70
2018-04-06T22:09:56.412Z,2.43
2018-04-06T22:14:59.061Z,3.07
2018-04-06T22:20:01.761Z,2.50
2018-04-06T22:25:04.280Z,2.60
2018-04-06T22:30:06.808Z,2.30
2018-04-06T22:35:10.315Z,2.63
2018-04-06T22:40:12.933Z,2.33
2018-04-06T22:45:16.357Z,2.30
2018-04-06T22:50:18.888Z,1.97
2018-04-06T22:55:21.463Z,1.77
2018-04-06T23:00:23.979Z,2.20
2018-04-06T23:05:26.701Z,1.70
2018-04-06T23:10:29.226Z,1.43
2018-04-06T23:15:31.940Z,1.83
2018-04-06T23:20:35.541Z,1.90
2018-04-06T23:25:38.102Z,1.90
2018-04-06T23:30:40.634Z,1.40
2018-04-06T23:35:44.452Z,2.10
2018-04-06T23:40:47.049Z,1.80
2018-04-06T23:45:49.572Z,2.00
2018-04-06T23:50:52.312Z,2.20
2018-04-06T23:55:54.860Z,1.77
